Time;durP1;ratioP1;P1;durP2;ratioP2;P2;SDS_P1;SDS_P2;PMS_P1;PMS_P2;Temp;Humidity;BMP_temperature;BMP_pressure;BME280_temperature;BME280_humidity;BME280_pressure;Samples;Min_cycle;Max_cycle;Signal;HPM_P1;HPM_P2
2021/03/12 00:00:53;;;;;;;8.93;1.87;;;6.00;86.30;;;;;;5054081;28;20029;-63
2021/03/12 00:03:21;;;;;;;5.73;1.60;;;5.90;86.30;;;;;;5053876;28;20032;-63
2021/03/12 00:05:55;;;;;;;10.43;1.57;;;5.90;86.20;;;;;;5054098;28;20029;-63
2021/03/12 00:08:29;;;;;;;7.40;2.00;;;5.90;86.60;;;;;;5036165;28;20033;-63
2021/03/12 00:10:56;;;;;;;7.33;1.80;;;5.90;87.20;;;;;;5053800;28;20394;-63
2021/03/12 00:13:24;;;;;;;7.47;1.80;;;5.90;87.40;;;;;;5053688;28;20041;-62
2021/03/12 00:15:50;;;;;;;7.57;1.90;;;6.00;87.50;;;;;;5036155;28;20112;-63
2021/03/12 00:18:21;;;;;;;8.97;2.10;;;6.10;87.50;;;;;;5035985;28;20151;-62
2021/03/12 00:20:47;;;;;;;7.80;2.00;;;6.10;87.50;;;;;;5053269;28;20034;-62
2021/03/12 00:23:13;;;;;;;9.07;1.93;;;6.20;87.40;;;;;;5053940;28;20493;-65
2021/03/12 00:25:44;;;;;;;9.50;1.87;;;6.20;87.30;;;;;;5053299;28;20040;-62
2021/03/12 00:28:12;;;;;;;6.83;1.90;;;6.20;86.90;;;;;;5035952;28;20029;-62
2021/03/12 00:30:40;;;;;;;9.50;2.10;;;6.10;86.70;;;;;;5053331;28;20034;-62
2021/03/12 00:33:07;;;;;;;7.47;1.83;;;6.10;87.20;;;;;;5035314;28;20371;-62
2021/03/12 00:35:38;;;;;;;7.17;1.80;;;6.10;87.50;;;;;;5053496;28;20033;-62
2021/03/12 00:38:04;;;;;;;6.30;1.53;;;6.10;87.50;;;;;;5018805;28;20041;-62
2021/03/12 00:40:38;;;;;;;7.27;1.70;;;6.10;87.70;;;;;;5053560;28;20090;-59
2021/03/12 00:43:04;;;;;;;7.80;1.67;;;6.10;87.80;;;;;;5034979;28;20041;-60
2021/03/12 00:45:37;;;;;;;7.50;1.70;;;6.10;87.90;;;;;;5035652;28;20059;-60
2021/03/12 00:48:10;;;;;;;5.97;1.57;;;6.10;87.80;;;;;;5034863;28;20068;-59
2021/03/12 00:50:39;;;;;;;6.60;1.50;;;6.10;87.80;;;;;;5034486;28;20459;-60
2021/03/12 00:53:06;;;;;;;8.23;1.40;;;6.10;87.70;;;;;;5035185;28;20032;-59
2021/03/12 00:55:33;;;;;;;6.77;1.53;;;6.10;87.70;;;;;;5035322;28;20148;-59
2021/03/12 00:57:58;;;;;;;6.80;1.20;;;6.10;87.80;;;;;;5053022;28;20033;-60
2021/03/12 01:00:26;;;;;;;7.80;1.47;;;6.10;87.70;;;;;;5034648;28;20064;-59
2021/03/12 01:02:54;;;;;;;7.57;1.40;;;6.10;87.80;;;;;;5052866;28;20037;-64
2021/03/12 01:05:20;;;;;;;6.23;1.27;;;6.10;87.90;;;;;;5052665;28;20110;-60
2021/03/12 01:07:46;;;;;;;3.97;1.30;;;6.10;87.80;;;;;;5018802;28;20051;-59
2021/03/12 01:10:17;;;;;;;;;;;6.10;87.70;;;;;;5035530;28;20102;-67
2021/03/12 01:12:43;;;;;;;5.00;1.20;;;6.00;87.40;;;;;;5052294;28;19982;-69
2021/03/12 01:15:14;;;;;;;7.33;1.10;;;6.00;87.70;;;;;;5034978;28;20439;-67
2021/03/12 01:17:39;;;;;;;7.37;1.60;;;6.00;87.90;;;;;;5034439;28;20048;-67
2021/03/12 01:20:09;;;;;;;11.53;1.50;;;6.00;87.90;;;;;;5034491;28;20037;-67
2021/03/12 01:22:35;;;;;;;5.93;1.13;;;6.00;87.70;;;;;;5018351;28;20086;-68
2021/03/12 01:25:06;;;;;;;8.43;1.40;;;6.20;87.80;;;;;;5034336;28;20044;-67
2021/03/12 01:27:38;;;;;;;5.97;1.17;;;6.00;87.80;;;;;;5034803;28;20037;-69
2021/03/12 01:30:14;;;;;;;7.95;1.35;;;6.00;87.80;;;;;;5034334;28;20116;-59
2021/03/12 01:32:40;;;;;;;10.67;1.40;;;6.10;87.80;;;;;;5034564;28;20047;-59
2021/03/12 01:35:07;;;;;;;5.23;1.10;;;6.10;87.80;;;;;;5034250;28;20397;-60
2021/03/12 01:37:35;;;;;;;10.80;1.60;;;6.10;87.70;;;;;;5034552;28;20052;-59
2021/03/12 01:40:05;;;;;;;8.67;1.33;;;6.10;87.70;;;;;;5051969;28;20504;-60
2021/03/12 01:42:34;;;;;;;7.40;1.43;;;6.10;87.60;;;;;;5018357;28;20056;-59
2021/03/12 01:45:08;;;;;;;9.00;1.87;;;6.10;87.10;;;;;;5034675;28;20413;-68
2021/03/12 01:47:34;;;;;;;13.87;1.70;;;6.10;87.20;;;;;;5038235;28;20043;-68
2021/03/12 01:49:59;;;;;;;8.13;1.63;;;6.00;87.00;;;;;;5018586;28;20033;-67
2021/03/12 01:52:25;;;;;;;7.23;1.73;;;5.90;86.90;;;;;;5033965;28;20413;-60
2021/03/12 01:54:51;;;;;;;9.47;1.43;;;5.90;87.10;;;;;;5034356;28;20112;-59
2021/03/12 01:57:17;;;;;;;8.73;1.50;;;5.90;87.40;;;;;;5051964;28;20048;-59
2021/03/12 02:00:06;;;;;;;7.83;1.70;;;5.90;87.60;;;;;;5033390;28;20378;-60
2021/03/12 02:02:41;;;;;;;10.70;1.80;;;6.00;87.60;;;;;;5051960;28;20120;-60
2021/03/12 02:05:20;;;;;;;14.23;2.30;;;6.00;87.50;;;;;;5033661;28;20068;-57
2021/03/12 02:07:46;;;;;;;6.97;1.57;;;6.00;87.60;;;;;;5051968;28;20493;-58
2021/03/12 02:10:23;;;;;;;8.77;1.90;;;6.00;87.50;;;;;;5033481;28;20044;-58
2021/03/12 02:13:13;;;;;;;9.40;1.80;;;6.00;87.20;;;;;;5033783;28;20107;-57
2021/03/12 02:16:03;;;;;;;10.27;1.80;;;6.00;87.30;;;;;;5033702;28;20037;-57
2021/03/12 02:18:50;;;;;;;10.67;1.90;;;6.00;87.30;;;;;;5033444;28;20405;-58
2021/03/12 02:21:52;;;;;;;7.13;1.43;;;6.00;87.30;;;;;;5033046;28;20037;-58
2021/03/12 02:24:31;;;;;;;9.53;1.80;;;6.00;87.60;;;;;;4993145;28;20039;-58
2021/03/12 02:27:08;;;;;;;9.77;2.00;;;6.00;87.50;;;;;;5033582;28;20032;-58
2021/03/12 02:29:45;;;;;;;10.90;2.20;;;6.10;87.60;;;;;;5033126;28;20444;-58
2021/03/12 02:32:16;;;;;;;11.00;1.80;;;6.10;87.50;;;;;;5018028;28;20036;-67
2021/03/12 02:34:46;;;;;;;11.83;1.80;;;6.10;87.40;;;;;;5033138;28;20112;-69
2021/03/12 02:37:19;;;;;;;10.07;2.10;;;6.10;87.30;;;;;;5033465;28;20090;-68
2021/03/12 02:39:56;;;;;;;9.97;1.90;;;6.10;87.20;;;;;;5033131;28;20036;-68
2021/03/12 02:42:29;;;;;;;12.87;2.23;;;6.10;87.30;;;;;;5063652;22;20046;-71
2021/03/12 02:44:59;;;;;;;13.87;2.53;;;6.10;87.30;;;;;;5052939;28;20403;-69
2021/03/12 02:47:28;;;;;;;11.32;2.30;;;6.20;87.30;;;;;;5053436;28;20044;-70
2021/03/12 02:50:01;;;;;;;12.43;2.23;;;6.20;87.30;;;;;;5052789;28;20037;-70
2021/03/12 02:52:28;;;;;;;14.20;2.73;;;6.20;87.30;;;;;;5039057;28;20481;-71
2021/03/12 02:54:55;;;;;;;10.53;2.10;;;6.30;87.10;;;;;;5049667;28;20484;-67
2021/03/12 02:57:25;;;;;;;14.15;2.42;;;6.30;87.10;;;;;;5049184;28;20045;-70
2021/03/12 02:59:55;;;;;;;11.27;2.10;;;6.20;87.10;;;;;;5049499;28;20064;-68
2021/03/12 03:02:47;;;;;;;;;;;6.30;87.10;;;;;;5049695;28;20033;-69
2021/03/12 03:05:37;;;;;;;13.30;2.72;;;6.30;87.00;;;;;;5036030;28;19924;-70
2021/03/12 03:08:06;;;;;;;12.37;2.33;;;6.30;87.00;;;;;;5033099;28;20106;-71
2021/03/12 03:10:34;;;;;;;13.90;3.13;;;6.30;87.00;;;;;;5032260;28;20461;-70
2021/03/12 03:13:02;;;;;;;11.77;2.60;;;6.30;86.90;;;;;;5032343;28;20041;-71
2021/03/12 03:15:28;;;;;;;13.23;3.23;;;6.30;86.90;;;;;;5049461;28;20045;-70
2021/03/12 03:17:54;;;;;;;12.03;2.80;;;6.20;86.90;;;;;;5049137;28;20043;-68
2021/03/12 03:20:26;;;;;;;12.33;2.80;;;6.20;86.90;;;;;;5032983;28;20061;-71
2021/03/12 03:22:53;;;;;;;13.43;2.90;;;6.30;86.90;;;;;;5048758;28;20064;-71
2021/03/12 03:25:19;;;;;;;12.63;2.93;;;6.30;87.00;;;;;;5049567;28;20065;-70
2021/03/12 03:27:45;;;;;;;13.30;3.30;;;6.20;87.00;;;;;;5049407;28;20037;-71
2021/03/12 03:30:14;;;;;;;12.73;3.13;;;6.30;87.10;;;;;;5048772;28;20492;-70
2021/03/12 03:32:43;;;;;;;13.90;3.03;;;6.30;87.00;;;;;;5049438;28;20029;-71
2021/03/12 03:35:10;;;;;;;12.60;3.10;;;6.30;87.00;;;;;;5049171;28;20052;-69
2021/03/12 03:37:37;;;;;;;13.20;3.10;;;6.30;86.90;;;;;;5049296;28;20549;-69
2021/03/12 03:40:06;;;;;;;13.73;3.30;;;6.30;86.90;;;;;;5032639;28;20041;-69
2021/03/12 03:42:34;;;;;;;16.50;3.10;;;6.30;86.90;;;;;;5015877;28;20087;-70
2021/03/12 03:45:06;;;;;;;11.70;2.90;;;6.30;86.80;;;;;;5050802;28;20033;-70
2021/03/12 03:47:33;;;;;;;16.67;3.80;;;6.30;86.90;;;;;;5049399;28;20045;-69
2021/03/12 03:50:00;;;;;;;13.63;3.30;;;6.30;86.90;;;;;;5049270;28;20116;-69
2021/03/12 03:52:27;;;;;;;14.07;3.40;;;6.30;86.80;;;;;;5032024;28;20057;-69
2021/03/12 03:55:00;;;;;;;17.00;3.97;;;6.40;86.80;;;;;;5033509;28;20033;-71
2021/03/12 03:57:27;;;;;;;13.97;3.20;;;6.40;86.70;;;;;;5049191;28;20037;-69
2021/03/12 03:59:53;;;;;;;14.80;3.20;;;6.40;86.70;;;;;;5031895;28;20040;-71
2021/03/12 04:02:21;;;;;;;12.83;3.10;;;6.40;86.70;;;;;;5049039;28;20523;-71
2021/03/12 04:04:49;;;;;;;15.60;3.67;;;6.40;86.60;;;;;;5032330;28;20029;-71
2021/03/12 04:07:18;;;;;;;15.63;3.20;;;6.40;86.50;;;;;;4999653;28;20496;-73
2021/03/12 04:09:48;;;;;;;11.00;3.20;;;6.40;86.90;;;;;;5048901;28;20124;-70
2021/03/12 04:12:15;;;;;;;16.77;3.43;;;6.50;86.40;;;;;;5048699;28;20037;-71
2021/03/12 04:14:46;;;;;;;17.30;3.97;;;6.50;86.30;;;;;;5031868;28;20040;-72
2021/03/12 04:17:14;;;;;;;12.90;3.00;;;6.50;86.10;;;;;;5048878;28;20128;-72
2021/03/12 04:19:46;;;;;;;14.60;3.20;;;6.50;86.00;;;;;;5032015;28;20025;-70
2021/03/12 04:22:13;;;;;;;13.00;2.97;;;6.50;85.90;;;;;;5049076;28;20045;-69
2021/03/12 04:24:40;;;;;;;13.43;3.00;;;6.50;85.70;;;;;;5051262;28;20044;-70
2021/03/12 04:27:10;;;;;;;13.32;3.05;;;6.50;85.60;;;;;;5051922;28;20067;-71
2021/03/12 04:29:36;;;;;;;13.17;2.87;;;6.50;85.40;;;;;;5019422;28;20119;-71
2021/03/12 04:32:03;;;;;;;16.00;3.10;;;6.50;85.30;;;;;;5035492;28;20051;-71
2021/03/12 04:34:28;;;;;;;13.57;3.23;;;6.50;85.10;;;;;;5035232;28;20116;-72
2021/03/12 04:36:55;;;;;;;15.03;3.40;;;6.50;85.10;;;;;;5052360;28;20116;-71
2021/03/12 04:39:22;;;;;;;14.13;3.20;;;6.50;84.90;;;;;;5051934;28;20409;-72
2021/03/12 04:41:49;;;;;;;11.90;2.97;;;6.50;84.80;;;;;;5035208;28;20044;-71
2021/03/12 04:44:17;;;;;;;13.07;3.00;;;6.50;84.70;;;;;;5035164;28;20083;-71
2021/03/12 04:46:44;;;;;;;15.97;3.17;;;6.50;84.70;;;;;;5051953;28;20039;-71
2021/03/12 04:49:11;;;;;;;16.03;3.00;;;6.50;84.60;;;;;;5019166;28;20492;-72
2021/03/12 04:51:38;;;;;;;15.67;3.20;;;6.50;84.60;;;;;;5034682;28;20108;-70
2021/03/12 04:54:16;;;;;;;12.43;3.07;;;6.50;84.50;;;;;;5035422;28;20032;-71
2021/03/12 04:56:43;;;;;;;12.97;3.00;;;6.50;84.50;;;;;;5034845;28;20408;-72
2021/03/12 04:59:11;;;;;;;15.00;2.73;;;6.50;84.40;;;;;;5053374;28;20029;-72
2021/03/12 05:01:41;;;;;;;12.67;2.73;;;6.50;84.30;;;;;;5035847;28;20036;-71
2021/03/12 05:04:08;;;;;;;16.57;3.57;;;6.50;84.20;;;;;;5035130;28;20029;-73
2021/03/12 05:06:40;;;;;;;9.47;2.43;;;6.50;84.00;;;;;;5053517;28;20156;-71
2021/03/12 05:09:18;;;;;;;11.23;2.40;;;6.50;84.00;;;;;;5020649;28;20037;-71
2021/03/12 05:11:45;;;;;;;16.60;2.63;;;6.50;83.80;;;;;;5051255;28;20378;-70
2021/03/12 05:14:31;;;;;;;14.80;2.87;;;6.50;83.70;;;;;;5035108;28;20401;-71
2021/03/12 05:16:57;;;;;;;15.20;3.20;;;6.40;83.50;;;;;;5035015;28;20041;-72
2021/03/12 05:19:24;;;;;;;11.13;2.43;;;6.50;83.60;;;;;;5034786;28;20095;-70
2021/03/12 05:21:55;;;;;;;14.73;2.97;;;6.50;83.40;;;;;;5034489;28;20029;-71
2021/03/12 05:24:23;;;;;;;14.20;2.73;;;6.50;83.40;;;;;;5050809;28;20041;-70
2021/03/12 05:26:51;;;;;;;18.27;3.13;;;6.40;83.30;;;;;;5052367;28;20082;-71
2021/03/12 05:29:21;;;;;;;13.80;2.93;;;6.40;83.20;;;;;;5034640;28;20128;-70
2021/03/12 05:31:52;;;;;;;19.48;3.20;;;6.40;83.10;;;;;;5033855;28;20033;-71
2021/03/12 05:34:18;;;;;;;14.40;2.90;;;6.40;83.00;;;;;;5034534;28;20091;-71
2021/03/12 05:36:44;;;;;;;13.40;2.50;;;6.40;83.10;;;;;;5051918;28;20128;-70
2021/03/12 05:39:12;;;;;;;18.03;3.20;;;6.40;83.00;;;;;;5050345;28;20029;-69
2021/03/12 05:41:38;;;;;;;12.87;2.60;;;6.40;83.00;;;;;;5050490;28;20112;-69
2021/03/12 05:44:06;;;;;;;17.97;3.10;;;6.30;82.80;;;;;;5050473;28;20120;-70
2021/03/12 05:46:34;;;;;;;14.17;3.03;;;6.40;82.90;;;;;;5052399;28;20139;-70
2021/03/12 05:49:03;;;;;;;16.30;3.25;;;6.40;82.80;;;;;;5034073;28;20567;-70
2021/03/12 05:51:29;;;;;;;15.63;3.30;;;6.30;82.60;;;;;;5050538;28;20037;-70
2021/03/12 05:53:55;;;;;;;16.57;3.23;;;6.30;82.70;;;;;;5051611;28;20039;-71
2021/03/12 05:56:21;;;;;;;15.40;2.70;;;6.30;82.60;;;;;;5051909;28;20041;-69
2021/03/12 05:58:55;;;;;;;14.70;3.07;;;6.30;82.50;;;;;;5035230;28;20104;-70
2021/03/12 06:01:21;;;;;;;15.60;3.10;;;6.30;82.30;;;;;;5033120;28;20044;-71
2021/03/12 06:03:46;;;;;;;13.67;2.70;;;6.30;82.30;;;;;;5050686;28;20033;-70
2021/03/12 06:06:13;;;;;;;16.93;3.07;;;6.30;82.90;;;;;;5051323;28;20021;-71
2021/03/12 06:08:41;;;;;;;14.33;2.87;;;6.30;82.30;;;;;;5050744;28;20033;-70
2021/03/12 06:11:07;;;;;;;15.03;3.40;;;6.30;82.30;;;;;;5050321;28;20543;-71
2021/03/12 06:13:50;;;;;;;14.80;2.80;;;6.40;82.20;;;;;;5051351;28;20078;-70
2021/03/12 06:16:27;;;;;;;16.33;2.87;;;6.40;82.20;;;;;;5050199;28;20398;-69
2021/03/12 06:19:14;;;;;;;17.00;3.57;;;6.30;82.00;;;;;;5051667;28;20037;-71
2021/03/12 06:21:43;;;;;;;15.30;3.13;;;6.30;81.80;;;;;;5049571;28;20063;-69
2021/03/12 06:24:24;;;;;;;16.23;3.20;;;6.40;81.70;;;;;;5033866;28;20512;-69
2021/03/12 06:27:02;;;;;;;12.07;2.80;;;6.30;82.20;;;;;;5034930;28;20083;-70
2021/03/12 06:29:38;;;;;;;15.02;3.50;;;6.30;81.70;;;;;;5050007;28;20037;-70
2021/03/12 06:32:48;;;;;;;17.53;3.30;;;6.40;81.60;;;;;;5049926;28;20029;-71
2021/03/12 06:35:33;;;;;;;11.67;2.90;;;6.40;81.40;;;;;;5049797;28;20029;-71
2021/03/12 06:38:10;;;;;;;14.63;2.87;;;6.50;81.00;;;;;;5033176;28;20451;-70
2021/03/12 06:40:45;;;;;;;16.40;3.23;;;6.40;80.70;;;;;;5051287;28;20064;-72
2021/03/12 06:43:25;;;;;;;18.47;3.27;;;6.50;80.80;;;;;;5032998;28;20045;-66
2021/03/12 06:46:00;;;;;;;11.10;2.60;;;6.60;81.10;;;;;;5049693;28;20033;-68
2021/03/12 06:48:33;;;;;;;16.10;3.43;;;6.80;81.60;;;;;;5050137;28;20037;-69
2021/03/12 06:51:19;;;;;;;16.30;3.47;;;7.10;81.20;;;;;;5032596;28;20069;-66
2021/03/12 06:53:46;;;;;;;11.77;2.60;;;7.40;80.60;;;;;;5032862;28;20037;-65
2021/03/12 06:56:15;;;;;;;12.53;2.73;;;7.40;79.20;;;;;;5032603;28;20040;-66
2021/03/12 06:59:03;;;;;;;12.32;3.10;;;7.40;78.80;;;;;;5034661;28;20029;-70
2021/03/12 07:02:02;;;;;;;15.20;3.00;;;7.40;78.70;;;;;;5032339;28;20030;-72
2021/03/12 07:04:31;;;;;;;14.27;2.77;;;7.20;78.20;;;;;;5033676;28;20067;-71
2021/03/12 07:07:33;;;;;;;11.27;2.63;;;7.10;78.50;;;;;;5050510;28;20036;-72
2021/03/12 07:10:05;;;;;;;14.73;3.00;;;7.00;78.50;;;;;;5048700;28;20420;-70
2021/03/12 07:12:52;;;;;;;14.70;2.90;;;7.00;78.90;;;;;;5049105;28;20535;-71
2021/03/12 07:15:27;;;;;;;12.10;2.60;;;7.10;78.90;;;;;;5050453;28;20033;-72
2021/03/12 07:18:01;;;;;;;13.53;2.67;;;7.10;78.50;;;;;;5048108;28;20144;-73
2021/03/12 07:20:30;;;;;;;16.03;2.60;;;7.00;78.10;;;;;;5030081;28;20064;-73
2021/03/12 07:23:01;;;;;;;11.80;2.70;;;7.00;77.90;;;;;;5031078;28;20032;-70
2021/03/12 07:25:29;;;;;;;11.60;2.70;;;6.90;77.60;;;;;;5031496;28;20033;-70
2021/03/12 07:28:05;;;;;;;13.13;2.87;;;6.90;77.80;;;;;;5031823;28;20029;-70
2021/03/12 07:30:54;;;;;;;16.83;2.80;;;6.90;78.00;;;;;;5034532;28;20511;-71
2021/03/12 07:33:24;;;;;;;11.90;2.40;;;6.90;78.10;;;;;;5032339;28;20440;-71
2021/03/12 07:35:58;;;;;;;14.67;3.03;;;7.00;78.20;;;;;;5031788;28;20029;-70
2021/03/12 07:38:35;;;;;;;12.47;2.43;;;7.10;78.10;;;;;;5032453;28;20037;-71
2021/03/12 07:41:10;;;;;;;12.53;2.93;;;7.10;77.90;;;;;;5014749;28;20053;-73
2021/03/12 07:43:49;;;;;;;13.57;2.70;;;7.20;77.60;;;;;;5042047;28;20033;-70
2021/03/12 07:46:30;;;;;;;24.97;2.53;;;7.30;77.60;;;;;;5010813;28;20029;-73
2021/03/12 07:49:27;;;;;;;13.03;2.43;;;7.20;77.00;;;;;;5012536;28;20034;-72
2021/03/12 07:51:55;;;;;;;10.30;2.00;;;7.20;76.70;;;;;;5027859;28;20064;-72
2021/03/12 07:54:50;;;;;;;12.13;2.58;;;7.20;76.80;;;;;;5014999;28;20404;-72
2021/03/12 07:57:40;;;;;;;13.20;2.17;;;7.30;76.90;;;;;;5047083;28;20063;-72
2021/03/12 08:00:29;;;;;;;12.13;2.40;;;7.30;76.80;;;;;;5021794;28;20040;-71
2021/03/12 08:03:31;;;;;;;11.63;2.10;;;7.20;76.50;;;;;;5031428;28;20045;-72
2021/03/12 08:06:20;;;;;;;15.77;2.27;;;7.30;77.00;;;;;;5044319;28;20048;-72
2021/03/12 08:09:31;;;;;;;11.20;2.30;;;7.30;76.70;;;;;;5053256;28;20045;-73
2021/03/12 08:12:52;;;;;;;11.77;2.20;;;7.40;76.50;;;;;;5055025;28;20251;-72
2021/03/12 08:15:31;;;;;;;10.60;2.23;;;7.40;76.20;;;;;;4956663;28;20038;-72
2021/03/12 08:18:19;;;;;;;9.67;2.00;;;7.40;76.40;;;;;;5038815;28;20047;-72
2021/03/12 08:20:54;;;;;;;9.93;2.00;;;7.50;76.50;;;;;;5035625;28;20025;-72
2021/03/12 08:23:34;;;;;;;9.60;2.00;;;7.60;76.10;;;;;;5027041;28;20029;-72
2021/03/12 08:26:05;;;;;;;11.40;1.93;;;7.70;75.60;;;;;;5036278;28;20554;-72
2021/03/12 08:28:49;;;;;;;12.07;2.10;;;7.70;76.00;;;;;;5037807;28;20082;-71
2021/03/12 08:31:41;;;;;;;12.67;2.60;;;7.80;75.90;;;;;;5048194;28;20045;-70
2021/03/12 08:34:36;;;;;;;12.87;2.20;;;7.90;76.20;;;;;;5035383;28;20029;-71
2021/03/12 08:37:29;;;;;;;7.97;1.70;;;8.20;75.40;;;;;;5036169;28;20608;-72
2021/03/12 08:40:25;;;;;;;12.57;2.10;;;8.30;75.10;;;;;;4980559;28;20054;-71
2021/03/12 08:43:17;;;;;;;10.50;2.10;;;8.60;75.60;;;;;;5051774;22;20049;-60
2021/03/12 08:46:11;;;;;;;12.23;2.05;;;9.10;76.20;;;;;;4990393;28;20049;-59
2021/03/12 08:48:40;;;;;;;8.95;1.90;;;9.60;74.40;;;;;;5008292;28;20190;-59
2021/03/12 08:51:15;;;;;;;10.13;1.90;;;9.80;73.30;;;;;;5014462;28;20038;-59
2021/03/12 08:53:52;;;;;;;12.90;1.90;;;9.80;72.00;;;;;;5002881;28;20509;-59
2021/03/12 08:56:30;;;;;;;13.43;1.80;;;9.80;71.40;;;;;;5012979;28;20105;-59
2021/03/12 08:58:59;;;;;;;12.05;2.17;;;9.90;73.00;;;;;;5014313;28;20025;-60
2021/03/12 09:01:43;;;;;;;9.75;1.88;;;10.70;71.60;;;;;;5031691;28;20485;-59
2021/03/12 09:04:31;;;;;;;11.88;2.30;;;11.10;69.10;;;;;;5014574;28;20037;-59
2021/03/12 09:07:11;;;;;;;8.77;1.98;;;11.00;68.00;;;;;;5007020;28;20037;-59
2021/03/12 09:09:55;;;;;;;7.95;2.00;;;11.00;68.00;;;;;;5013208;28;20361;-59
2021/03/12 09:12:37;;;;;;;10.95;2.20;;;10.90;66.90;;;;;;5005932;28;20033;-59
2021/03/12 09:15:22;;;;;;;9.90;2.03;;;10.70;66.60;;;;;;4997966;28;20179;-59
2021/03/12 09:17:56;;;;;;;11.25;2.40;;;10.60;67.50;;;;;;4994643;28;20183;-59
2021/03/12 09:20:23;;;;;;;7.88;1.90;;;11.40;68.90;;;;;;5004219;28;20085;-59
2021/03/12 09:22:57;;;;;;;7.50;1.75;;;11.70;66.50;;;;;;5014110;28;20037;-60
2021/03/12 09:25:32;;;;;;;11.25;2.35;;;11.80;65.50;;;;;;5014117;28;20057;-60
2021/03/12 09:28:11;;;;;;;9.32;1.80;;;12.40;66.70;;;;;;5014428;28;20109;-60
2021/03/12 09:30:45;;;;;;;9.02;2.20;;;14.00;66.80;;;;;;5013636;28;20034;-60
2021/03/12 09:33:46;;;;;;;9.88;2.10;;;15.50;64.50;;;;;;5003816;28;20086;-60
2021/03/12 09:36:25;;;;;;;8.52;2.15;;;16.60;57.60;;;;;;5017211;28;20051;-60
2021/03/12 09:38:54;;;;;;;14.60;2.20;;;15.70;54.90;;;;;;4993719;28;20070;-60
2021/03/12 09:41:27;;;;;;;12.32;1.95;;;14.30;55.60;;;;;;5021610;28;20048;-59
2021/03/12 09:44:05;;;;;;;10.52;1.92;;;13.40;56.70;;;;;;5013695;28;20057;-60
2021/03/12 09:46:42;;;;;;;10.45;2.28;;;13.10;57.70;;;;;;5013935;28;20060;-60
2021/03/12 09:49:18;;;;;;;8.90;1.88;;;12.70;57.30;;;;;;4998451;28;20037;-59
2021/03/12 09:51:47;;;;;;;10.95;2.00;;;12.50;58.70;;;;;;5013733;28;20323;-59
2021/03/12 09:54:15;;;;;;;11.20;2.10;;;12.40;57.70;;;;;;4997303;28;20060;-59
2021/03/12 09:56:49;;;;;;;11.80;2.20;;;12.20;57.80;;;;;;5013702;28;20042;-59
2021/03/12 09:59:20;;;;;;;9.52;2.05;;;12.30;58.80;;;;;;4997176;28;20041;-59
2021/03/12 10:01:50;;;;;;;10.68;2.30;;;12.20;56.80;;;;;;5031123;28;20068;-59
2021/03/12 10:04:38;;;;;;;11.32;2.53;;;11.80;56.40;;;;;;5031180;28;20092;-59
2021/03/12 10:07:37;;;;;;;12.05;2.50;;;11.10;56.90;;;;;;5007595;28;20073;-60
2021/03/12 10:10:32;;;;;;;9.27;2.05;;;10.50;58.10;;;;;;5012187;28;20120;-59
2021/03/12 10:13:04;;;;;;;11.23;2.20;;;10.10;59.10;;;;;;5028820;28;20120;-59
2021/03/12 10:15:38;;;;;;;11.77;2.95;;;9.70;59.80;;;;;;4997291;28;20506;-59
2021/03/12 10:18:27;;;;;;;8.40;2.20;;;9.60;60.90;;;;;;5017605;28;20148;-62
2021/03/12 10:20:53;;;;;;;11.48;2.70;;;10.10;62.60;;;;;;4999077;28;20052;-59
2021/03/12 10:23:18;;;;;;;10.63;2.08;;;10.60;62.00;;;;;;5031020;28;20034;-61
2021/03/12 10:25:46;;;;;;;9.25;2.10;;;10.80;60.40;;;;;;5025962;28;20462;-59
2021/03/12 10:28:22;;;;;;;13.27;2.15;;;10.90;60.80;;;;;;5011394;28;20113;-59
2021/03/12 10:31:00;;;;;;;10.75;2.13;;;11.00;59.90;;;;;;5003652;28;20077;-58
2021/03/12 10:33:29;;;;;;;13.27;2.90;;;11.10;59.60;;;;;;4975776;28;20042;-60
2021/03/12 10:35:57;;;;;;;12.82;2.63;;;11.10;59.50;;;;;;4987832;28;20093;-60
2021/03/12 10:38:27;;;;;;;9.77;2.53;;;11.10;59.70;;;;;;4991217;28;20070;-60
2021/03/12 10:40:57;;;;;;;;;;;11.20;59.40;;;;;;4993256;28;20034;-60
2021/03/12 10:43:28;;;;;;;11.02;2.80;;;11.10;58.50;;;;;;5008996;28;20435;-60
2021/03/12 10:45:55;;;;;;;13.43;2.92;;;11.00;59.10;;;;;;5008655;28;20030;-59
2021/03/12 10:48:26;;;;;;;13.45;2.83;;;11.00;59.30;;;;;;4991331;28;20487;-63
2021/03/12 10:51:03;;;;;;;12.60;2.42;;;11.00;59.00;;;;;;4993963;28;20038;-66
2021/03/12 10:53:29;;;;;;;13.75;2.90;;;11.00;59.30;;;;;;4990872;28;20125;-63
2021/03/12 10:56:03;;;;;;;11.82;2.78;;;11.20;60.00;;;;;;5010621;28;20034;-63
2021/03/12 10:58:32;;;;;;;15.38;2.90;;;11.20;58.20;;;;;;5010919;28;20124;-63
2021/03/12 11:01:09;;;;;;;9.80;2.72;;;11.20;59.00;;;;;;5011096;28;20033;-63
2021/03/12 11:03:36;;;;;;;10.27;2.30;;;11.40;59.70;;;;;;4991360;28;20035;-66
2021/03/12 11:06:03;;;;;;;10.40;2.60;;;11.70;59.00;;;;;;4991888;28;20206;-63
2021/03/12 11:08:29;;;;;;;13.10;2.80;;;11.70;58.00;;;;;;4991586;28;20049;-62
2021/03/12 11:10:56;;;;;;;10.45;2.72;;;11.80;58.70;;;;;;4991950;28;20039;-63
2021/03/12 11:13:22;;;;;;;10.63;2.60;;;11.90;57.90;;;;;;4991766;28;20400;-63
2021/03/12 11:15:48;;;;;;;14.38;2.90;;;11.80;57.50;;;;;;4990223;28;20081;-64
2021/03/12 11:18:14;;;;;;;9.65;2.40;;;11.60;57.20;;;;;;4991900;28;20414;-64
2021/03/12 11:20:40;;;;;;;11.10;2.47;;;11.30;57.20;;;;;;4990901;28;20383;-62
2021/03/12 11:23:06;;;;;;;13.25;2.30;;;11.10;57.70;;;;;;4990463;28;20049;-63
2021/03/12 11:25:32;;;;;;;10.70;2.42;;;11.00;58.10;;;;;;4991738;28;20042;-60
2021/03/12 11:27:58;;;;;;;10.00;2.25;;;10.90;58.10;;;;;;4991302;28;20095;-59
2021/03/12 11:30:25;;;;;;;10.90;2.70;;;10.70;57.70;;;;;;4990027;28;20038;-60
2021/03/12 11:32:51;;;;;;;9.30;2.40;;;10.50;57.70;;;;;;5000279;28;20042;-63
2021/03/12 11:35:17;;;;;;;10.65;2.75;;;10.20;58.30;;;;;;4997014;28;20038;-60
2021/03/12 11:37:44;;;;;;;11.45;2.70;;;10.10;59.00;;;;;;4997330;28;20064;-59
2021/03/12 11:40:11;;;;;;;12.52;2.53;;;10.00;59.50;;;;;;5010228;28;20038;-59
2021/03/12 11:42:39;;;;;;;10.32;3.00;;;9.90;59.40;;;;;;4996904;28;20053;-59
2021/03/12 11:45:07;;;;;;;10.35;2.85;;;10.10;60.60;;;;;;5014347;28;20184;-59
2021/03/12 11:47:34;;;;;;;11.25;2.60;;;10.50;60.90;;;;;;5007144;28;20046;-59
2021/03/12 11:49:59;;;;;;;11.02;2.63;;;10.80;60.10;;;;;;5014591;28;20042;-59
2021/03/12 11:52:26;;;;;;;10.13;2.45;;;11.30;59.70;;;;;;4996650;28;20121;-59
2021/03/12 11:54:56;;;;;;;11.30;2.60;;;11.60;58.60;;;;;;5015034;28;20041;-59
2021/03/12 11:57:22;;;;;;;12.23;2.60;;;11.80;57.80;;;;;;4996755;28;20064;-60
2021/03/12 11:59:48;;;;;;;13.30;2.70;;;12.30;58.70;;;;;;5013940;28;20053;-59
2021/03/12 12:02:15;;;;;;;8.20;2.25;;;12.50;56.60;;;;;;5003706;28;20077;-60
2021/03/12 12:04:43;;;;;;;10.27;2.53;;;12.40;55.70;;;;;;5033357;28;20068;-59
2021/03/12 12:07:09;;;;;;;12.95;2.30;;;12.10;55.30;;;;;;4999491;28;20033;-61
2021/03/12 12:09:35;;;;;;;10.15;2.30;;;11.70;55.40;;;;;;5033566;28;20068;-62
2021/03/12 12:12:01;;;;;;;11.57;2.53;;;11.40;56.30;;;;;;5014886;28;20065;-62
2021/03/12 12:14:26;;;;;;;10.40;2.53;;;11.30;56.70;;;;;;5033631;28;20061;-61
2021/03/12 12:16:52;;;;;;;9.38;2.13;;;11.20;56.30;;;;;;5033119;28;20042;-59
2021/03/12 12:19:19;;;;;;;10.80;2.08;;;11.00;56.40;;;;;;5015648;28;20060;-59
2021/03/12 12:21:46;;;;;;;9.65;2.28;;;10.70;56.60;;;;;;5015370;28;20060;-60
2021/03/12 12:24:12;;;;;;;8.60;2.08;;;10.50;56.90;;;;;;5015119;28;20082;-69
2021/03/12 12:26:38;;;;;;;9.25;2.45;;;10.30;57.30;;;;;;5006712;28;20376;-63
2021/03/12 12:29:05;;;;;;;9.57;2.03;;;10.20;57.60;;;;;;5032659;28;20497;-63
2021/03/12 12:31:34;;;;;;;10.63;2.30;;;10.10;58.10;;;;;;5032710;28;20042;-64
2021/03/12 12:34:01;;;;;;;9.32;2.00;;;10.20;58.70;;;;;;5032587;28;20486;-62
2021/03/12 12:36:28;;;;;;;10.45;2.40;;;10.40;58.80;;;;;;5032828;28;20041;-63
2021/03/12 12:38:55;;;;;;;8.75;2.30;;;10.70;58.60;;;;;;5032768;28;20030;-63
2021/03/12 12:41:22;;;;;;;7.55;1.90;;;10.70;57.60;;;;;;5032056;28;20076;-63
2021/03/12 12:43:48;;;;;;;13.32;2.47;;;10.60;57.20;;;;;;5032894;28;20033;-59
2021/03/12 12:46:14;;;;;;;9.20;2.47;;;10.50;57.40;;;;;;5031344;28;20037;-59
2021/03/12 12:48:41;;;;;;;9.45;1.90;;;10.40;57.70;;;;;;5032747;28;20037;-58
2021/03/12 12:51:08;;;;;;;10.05;2.17;;;10.50;58.40;;;;;;5014643;28;20063;-59
2021/03/12 12:53:34;;;;;;;9.27;2.15;;;10.60;58.40;;;;;;5025023;28;20034;-60
2021/03/12 12:56:00;;;;;;;9.65;2.20;;;10.70;58.00;;;;;;4991802;28;20505;-58
2021/03/12 12:58:27;;;;;;;12.90;2.20;;;10.60;58.00;;;;;;5000404;28;20502;-59
2021/03/12 13:00:54;;;;;;;8.77;1.90;;;10.60;57.90;;;;;;5025327;28;20075;-58
2021/03/12 13:03:20;;;;;;;9.18;1.90;;;10.40;57.40;;;;;;5032492;28;20040;-59
2021/03/12 13:05:46;;;;;;;10.57;1.80;;;10.30;57.50;;;;;;5032238;28;20034;-58
2021/03/12 13:08:12;;;;;;;7.53;2.35;;;10.10;57.90;;;;;;5032860;28;20547;-63
2021/03/12 13:10:39;;;;;;;12.23;2.65;;;10.10;58.40;;;;;;5032182;28;20034;-62
2021/03/12 13:13:05;;;;;;;8.55;1.88;;;10.20;59.70;;;;;;5014113;28;20481;-62
2021/03/12 13:15:31;;;;;;;10.43;2.20;;;10.40;59.70;;;;;;5032097;28;20505;-62